Terminal Aerodrome Forecast
Issued by NWS Blacksburg, VA

Home | Current Version | Previous Version | Text Only | Print | Product List | Glossary On
Versions: 1 2 3 4 5 6 7 8 9 10 11 12 13 14 15 16 17 18 19 20 21 22 23 24 25 26 27 28 29 30 31 32 33 34 35 36 37 38 39 40 41 42 43 44 45
000
FTUS41 KRNK 261734
TAFDAN
TAF
KDAN 261734Z 2618/2718 22009G19KT P6SM SCT007 BKN035
     FM261900 22012G20KT P6SM BKN050
     FM270400 30008G18KT P6SM VCSH OVC040
     FM270700 35012G24KT 5SM -SHRA OVC018
     FM271500 01004KT P6SM SCT018 OVC025=

USA.gov is the U.S. government's official web portal to all federal, state and local government web resources and services.